Time;durP1;ratioP1;P1;durP2;ratioP2;P2;SDS_P1;SDS_P2;PMS_P1;PMS_P2;Temp;Humidity;BMP_temperature;BMP_pressure;BME280_temperature;BME280_humidity;BME280_pressure;Samples;Min_cycle;Max_cycle;Signal;HPM_P1;HPM_P2
2022/12/08 00:00:12;;;;;;;11.50;7.20;;;;;;;0.60;83.69;99261.19;100196;1290;137467;-66
2022/12/08 00:02:59;;;;;;;13.90;7.00;;;;;;;0.56;83.60;99258.84;100272;1284;110604;-66
2022/12/08 00:10:57;;;;;;;13.00;5.70;;;;;;;0.49;83.40;99271.70;100088;1290;139580;-66
2022/12/08 00:13:25;;;;;;;11.00;5.30;;;;;;;0.49;83.39;99273.23;100160;1292;112350;-66
2022/12/08 00:15:52;;;;;;;8.30;5.30;;;;;;;0.52;83.21;99272.70;100118;1288;108572;-66
2022/12/08 00:18:19;;;;;;;7.30;4.50;;;;;;;0.54;82.77;99278.70;100051;1291;139038;-66
2022/12/08 00:20:46;;;;;;;8.20;4.50;;;;;;;0.52;82.51;99283.30;100191;1295;107587;-66
2022/12/08 00:23:13;;;;;;;7.00;4.20;;;;;;;0.53;82.46;99282.10;100038;1297;137251;-66
2022/12/08 00:25:40;;;;;;;6.00;3.40;;;;;;;0.53;82.27;99289.63;100195;1290;110842;-66
2022/12/08 00:28:08;;;;;;;9.10;4.40;;;;;;;0.50;81.76;99293.92;100090;1287;108415;-66
2022/12/08 00:30:35;;;;;;;8.60;3.70;;;;;;;0.49;81.74;99297.87;100159;1291;137826;-65
2022/12/08 00:33:02;;;;;;;6.90;3.10;;;;;;;0.48;81.54;99297.70;100101;1290;108190;-66
2022/12/08 00:35:29;;;;;;;6.00;3.50;;;;;;;0.46;81.63;99309.35;100110;1298;137198;-66
2022/12/08 00:37:56;;;;;;;5.50;2.80;;;;;;;0.42;81.57;99311.95;100133;1288;111862;-66
2022/12/08 00:40:27;;;;;;;6.10;3.00;;;;;;;0.41;81.54;99315.89;100009;1291;138890;-66
2022/12/08 00:42:55;;;;;;;7.00;3.10;;;;;;;0.42;81.55;99316.56;100171;1297;97992;-66
2022/12/08 00:45:23;;;;;;;4.40;2.30;;;;;;;0.42;81.70;99313.49;100183;1287;108383;-65
2022/12/08 00:47:50;;;;;;;5.80;2.70;;;;;;;0.44;81.66;99321.34;100056;1291;137866;-66
2022/12/08 00:50:17;;;;;;;4.10;2.80;;;;;;;0.45;81.50;99320.14;100207;1291;110938;-66
2022/12/08 00:52:44;;;;;;;6.80;2.60;;;;;;;0.44;81.62;99330.06;100031;1291;138383;-66
2022/12/08 00:55:12;;;;;;;5.90;3.10;;;;;;;0.44;81.75;99331.77;100154;1290;97923;-66
2022/12/08 00:57:39;;;;;;;5.60;2.70;;;;;;;0.47;81.81;99329.86;100172;1282;108236;-67
2022/12/08 01:00:08;;;;;;;4.90;2.70;;;;;;;0.49;81.77;99332.08;100068;1291;137879;-67
2022/12/08 01:02:36;;;;;;;5.20;3.00;;;;;;;0.51;81.80;99335.64;100380;1289;110321;-65
2022/12/08 01:05:03;;;;;;;5.70;2.60;;;;;;;0.51;81.52;99334.63;100034;1291;139105;-65
2022/12/08 01:07:30;;;;;;;5.60;2.50;;;;;;;0.46;81.38;99337.40;100210;1295;98213;-67
2022/12/08 01:09:58;;;;;;;5.10;2.90;;;;;;;0.43;81.40;99338.96;100126;1290;108417;-65
2022/12/08 01:12:25;;;;;;;8.30;2.80;;;;;;;0.37;81.35;99341.05;100062;1297;137305;-66
2022/12/08 01:14:52;;;;;;;9.30;2.90;;;;;;;0.32;81.36;99344.65;100177;1292;110713;-66
2022/12/08 01:17:25;;;;;;;6.80;3.00;;;;;;;0.27;81.37;99346.73;99967;1292;137951;-65
2022/12/08 01:19:52;;;;;;;5.70;2.70;;;;;;;0.27;81.52;99347.94;100132;1291;97942;-66
2022/12/08 01:22:19;;;;;;;3.40;2.30;;;;;;;0.27;81.37;99349.98;100138;1291;105871;-66
2022/12/08 01:24:47;;;;;;;5.60;2.80;;;;;;;0.32;81.19;99356.96;100156;1287;97914;-66
2022/12/08 01:27:16;;;;;;;4.10;2.40;;;;;;;0.34;81.34;99352.50;100187;1285;111759;-66
2022/12/08 01:29:44;;;;;;;10.70;2.80;;;;;;;0.37;81.25;99353.20;100027;1290;137944;-66
2022/12/08 01:32:11;;;;;;;6.30;2.70;;;;;;;0.40;81.24;99349.25;100139;1297;97863;-66
2022/12/08 01:34:38;;;;;;;7.50;3.10;;;;;;;0.40;81.09;99351.47;100047;1298;137475;-66
2022/12/08 01:37:05;;;;;;;8.20;3.10;;;;;;;0.36;80.93;99348.40;100137;1292;97841;-66
2022/12/08 01:39:32;;;;;;;5.90;2.70;;;;;;;0.33;81.02;99350.98;100192;1295;111964;-66
2022/12/08 01:42:00;;;;;;;6.70;3.10;;;;;;;0.29;80.93;99346.90;100023;1291;137664;-65
2022/12/08 01:45:01;;;;;;;7.10;2.90;;;;;;;0.23;81.00;99346.77;100125;1283;97703;-65
2022/12/08 01:47:34;;;;;;;6.00;3.00;;;;;;;0.22;81.08;99349.00;100001;1291;137798;-65
2022/12/08 01:50:02;;;;;;;11.40;2.50;;;;;;;0.21;81.17;99345.08;100229;1284;98131;-67
2022/12/08 01:52:35;;;;;;;5.20;2.50;;;;;;;0.23;81.03;99354.80;100196;1292;137684;-68
2022/12/08 01:55:07;;;;;;;5.30;2.60;;;;;;;0.25;80.99;99357.19;100128;1292;108421;-65
2022/12/08 01:57:37;;;;;;;6.40;2.90;;;;;;;0.28;81.00;99361.95;100164;1290;98283;-67
2022/12/08 02:00:08;;;;;;;6.80;2.90;;;;;;;0.28;80.99;99362.12;100048;1284;137927;-66
2022/12/08 02:02:41;;;;;;;6.80;2.60;;;;;;;0.25;80.80;99361.45;100178;1290;97811;-67
2022/12/08 02:05:10;;;;;;;6.60;2.90;;;;;;;0.23;80.80;99359.76;100222;1284;137033;-67
2022/12/08 02:07:38;;;;;;;4.70;2.40;;;;;;;0.21;80.84;99362.51;100160;1290;107280;-67
2022/12/08 02:10:07;;;;;;;5.00;2.80;;;;;;;0.17;80.75;99360.64;100228;1291;98322;-66
2022/12/08 02:12:34;;;;;;;7.60;2.90;;;;;;;0.15;80.84;99360.13;100265;1287;137682;-66
2022/12/08 02:15:02;;;;;;;5.70;2.80;;;;;;;0.15;80.79;99359.45;100149;1292;97988;-66
2022/12/08 02:17:49;;;;;;;8.30;2.80;;;;;;;0.16;80.74;99357.21;100060;1290;137749;-66
2022/12/08 02:20:35;;;;;;;7.10;2.90;;;;;;;0.17;80.75;99360.46;100145;1291;109498;-66
2022/12/08 02:23:11;;;;;;;4.70;3.10;;;;;;;0.18;80.72;99361.48;100091;1292;137414;-66
2022/12/08 02:25:49;;;;;;;8.40;3.60;;;;;;;0.19;80.71;99363.89;99557;1296;1003112;-66
2022/12/08 02:28:37;;;;;;;8.10;3.10;;;;;;;0.17;80.43;99363.02;100243;1287;98037;-66
2022/12/08 02:31:21;;;;;;;7.00;3.30;;;;;;;0.13;80.42;99358.09;100182;1291;112857;-66
2022/12/08 02:34:09;;;;;;;6.70;3.10;;;;;;;0.08;80.27;99354.01;100146;1288;107374;-66
2022/12/08 02:36:44;;;;;;;5.40;3.10;;;;;;;0.01;80.38;99355.41;100093;1292;137147;-66
2022/12/08 02:39:23;;;;;;;7.00;3.40;;;;;;;-0.04;80.49;99356.10;100149;1291;108171;-66
2022/12/08 02:41:57;;;;;;;8.50;3.50;;;;;;;-0.07;80.63;99355.94;100047;1291;139460;-66
2022/12/08 02:44:29;;;;;;;6.10;3.50;;;;;;;-0.06;80.61;99358.84;100153;1292;111373;-66
2022/12/08 02:47:01;;;;;;;7.80;3.50;;;;;;;-0.04;80.73;99361.05;100077;1284;138275;-66
2022/12/08 02:49:32;;;;;;;7.90;3.40;;;;;;;0.01;80.70;99361.56;100148;1275;98364;-66
2022/12/08 02:52:28;;;;;;;8.00;3.30;;;;;;;0.05;80.72;99366.67;100336;1297;108372;-66
2022/12/08 02:54:58;;;;;;;6.00;3.70;;;;;;;0.10;80.76;99372.11;100263;1291;97802;-66
2022/12/08 02:57:35;;;;;;;7.20;3.30;;;;;;;0.11;80.60;99370.06;100283;1292;111006;-65
